sensor_id;sensor_type;location;lat;lon;timestamp;pressure;altitude;pressure_sealevel;temperature;humidity
29815;BME280;16708;50.426;7.664;2023-03-15T00:08:19;983.76;;;-0.19;100.00
29815;BME280;16708;50.426;7.664;2023-03-15T00:22:56;983.85;;;-0.30;100.00
29815;BME280;16708;50.426;7.664;2023-03-15T00:37:27;983.92;;;-0.72;100.00
29815;BME280;16708;50.426;7.664;2023-03-15T00:52:00;984.10;;;-0.40;100.00
29815;BME280;16708;50.426;7.664;2023-03-15T01:06:35;984.25;;;-0.34;100.00
29815;BME280;16708;50.426;7.664;2023-03-15T01:21:12;984.28;;;-0.32;100.00
29815;BME280;16708;50.426;7.664;2023-03-15T01:35:50;984.33;;;-0.14;100.00
29815;BME280;16708;50.426;7.664;2023-03-15T01:50:27;984.34;;;-0.38;100.00
29815;BME280;16708;50.426;7.664;2023-03-15T02:05:05;984.45;;;-0.44;100.00
29815;BME280;16708;50.426;7.664;2023-03-15T02:34:17;984.71;;;0.00;100.00
29815;BME280;16708;50.426;7.664;2023-03-15T02:48:55;984.62;;;0.02;100.00
29815;BME280;16708;50.426;7.664;2023-03-15T03:03:31;984.64;;;0.05;100.00
29815;BME280;16708;50.426;7.664;2023-03-15T03:18:08;984.68;;;0.29;100.00
29815;BME280;16708;50.426;7.664;2023-03-15T03:32:41;984.78;;;0.32;100.00
29815;BME280;16708;50.426;7.664;2023-03-15T03:47:22;984.93;;;0.20;100.00
29815;BME280;16708;50.426;7.664;2023-03-15T04:01:51;985.00;;;0.36;100.00
29815;BME280;16708;50.426;7.664;2023-03-15T04:16:27;985.16;;;0.33;100.00
29815;BME280;16708;50.426;7.664;2023-03-15T04:31:02;985.01;;;0.04;100.00
29815;BME280;16708;50.426;7.664;2023-03-15T04:45:35;985.12;;;-0.03;100.00
29815;BME280;16708;50.426;7.664;2023-03-15T05:00:04;985.23;;;-0.20;100.00
29815;BME280;16708;50.426;7.664;2023-03-15T05:14:42;985.45;;;-0.25;100.00
29815;BME280;16708;50.426;7.664;2023-03-15T05:29:18;985.66;;;-0.34;100.00
29815;BME280;16708;50.426;7.664;2023-03-15T05:43:56;985.76;;;-0.38;100.00
29815;BME280;16708;50.426;7.664;2023-03-15T05:58:31;985.84;;;-0.28;100.00
29815;BME280;16708;50.426;7.664;2023-03-15T06:13:09;985.98;;;-0.29;100.00
29815;BME280;16708;50.426;7.664;2023-03-15T06:27:45;986.09;;;0.03;100.00
29815;BME280;16708;50.426;7.664;2023-03-15T06:42:23;986.30;;;0.05;100.00
29815;BME280;16708;50.426;7.664;2023-03-15T06:57:00;986.55;;;0.30;100.00
29815;BME280;16708;50.426;7.664;2023-03-15T07:11:29;986.77;;;0.56;100.00
29815;BME280;16708;50.426;7.664;2023-03-15T07:26:06;986.88;;;0.55;100.00
29815;BME280;16708;50.426;7.664;2023-03-15T07:40:45;987.01;;;1.09;100.00
29815;BME280;16708;50.426;7.664;2023-03-15T07:55:23;987.32;;;1.32;100.00
29815;BME280;16708;50.426;7.664;2023-03-15T08:10:00;987.52;;;1.41;100.00
29815;BME280;16708;50.426;7.664;2023-03-15T08:24:39;987.62;;;2.06;100.00
29815;BME280;16708;50.426;7.664;2023-03-15T08:39:17;987.95;;;2.86;100.00
29815;BME280;16708;50.426;7.664;2023-03-15T08:53:53;988.14;;;3.26;100.00
29815;BME280;16708;50.426;7.664;2023-03-15T09:08:31;988.24;;;3.50;100.00
29815;BME280;16708;50.426;7.664;2023-03-15T09:23:11;988.55;;;3.41;100.00
29815;BME280;16708;50.426;7.664;2023-03-15T09:28:06;988.52;;;3.83;100.00
29815;BME280;16708;50.426;7.664;2023-03-15T09:33:01;988.49;;;4.87;100.00
29815;BME280;16708;50.426;7.664;2023-03-15T09:37:56;988.70;;;4.12;100.00
29815;BME280;16708;50.426;7.664;2023-03-15T09:42:52;988.69;;;3.70;100.00
29815;BME280;16708;50.426;7.664;2023-03-15T09:47:44;988.79;;;4.01;100.00
29815;BME280;16708;50.426;7.664;2023-03-15T09:52:38;988.82;;;5.27;100.00
29815;BME280;16708;50.426;7.664;2023-03-15T09:57:32;988.84;;;4.25;100.00
29815;BME280;16708;50.426;7.664;2023-03-15T10:02:26;988.84;;;3.18;100.00
29815;BME280;16708;50.426;7.664;2023-03-15T10:07:20;988.97;;;3.46;100.00
29815;BME280;16708;50.426;7.664;2023-03-15T10:17:05;988.95;;;5.63;100.00
29815;BME280;16708;50.426;7.664;2023-03-15T10:22:00;988.92;;;5.14;100.00
29815;BME280;16708;50.426;7.664;2023-03-15T10:31:50;988.90;;;10.01;100.00
29815;BME280;16708;50.426;7.664;2023-03-15T10:36:46;988.89;;;6.47;100.00
29815;BME280;16708;50.426;7.664;2023-03-15T10:46:34;988.91;;;11.60;79.49
29815;BME280;16708;50.426;7.664;2023-03-15T10:51:28;989.00;;;11.57;78.23
29815;BME280;16708;50.426;7.664;2023-03-15T11:01:15;988.98;;;7.15;100.00
29815;BME280;16708;50.426;7.664;2023-03-15T11:06:09;989.06;;;5.90;100.00
29815;BME280;16708;50.426;7.664;2023-03-15T11:11:03;989.09;;;4.78;100.00
29815;BME280;16708;50.426;7.664;2023-03-15T11:20:52;989.09;;;12.10;75.21
29815;BME280;16708;50.426;7.664;2023-03-15T11:25:49;989.21;;;9.94;69.46
29815;BME280;16708;50.426;7.664;2023-03-15T11:30:43;989.20;;;14.01;59.46
29815;BME280;16708;50.426;7.664;2023-03-15T11:35:39;989.36;;;8.43;99.33
29815;BME280;16708;50.426;7.664;2023-03-15T11:40:31;989.25;;;9.02;99.45
29815;BME280;16708;50.426;7.664;2023-03-15T11:45:25;989.35;;;10.81;69.94
29815;BME280;16708;50.426;7.664;2023-03-15T11:50:20;989.32;;;10.07;68.92
29815;BME280;16708;50.426;7.664;2023-03-15T12:14:46;989.69;;;8.62;72.17
29815;BME280;16708;50.426;7.664;2023-03-15T12:19:40;989.68;;;9.68;58.64
29815;BME280;16708;50.426;7.664;2023-03-15T12:24:35;989.67;;;9.03;58.06
29815;BME280;16708;50.426;7.664;2023-03-15T12:29:29;989.51;;;10.19;54.95
29815;BME280;16708;50.426;7.664;2023-03-15T12:34:22;989.61;;;11.06;52.56
29815;BME280;16708;50.426;7.664;2023-03-15T12:54:00;989.57;;;12.89;44.63
29815;BME280;16708;50.426;7.664;2023-03-15T12:58:55;989.78;;;8.61;62.46
29815;BME280;16708;50.426;7.664;2023-03-15T13:13:35;989.67;;;6.47;60.84
29815;BME280;16708;50.426;7.664;2023-03-15T13:23:22;989.66;;;7.48;60.51
29815;BME280;16708;50.426;7.664;2023-03-15T13:28:16;989.55;;;8.47;51.19
29815;BME280;16708;50.426;7.664;2023-03-15T13:33:11;989.55;;;8.66;49.41
29815;BME280;16708;50.426;7.664;2023-03-15T13:38:06;989.54;;;12.13;43.48
29815;BME280;16708;50.426;7.664;2023-03-15T13:47:59;989.46;;;16.40;34.96
29815;BME280;16708;50.426;7.664;2023-03-15T13:52:55;989.44;;;18.22;32.86
29815;BME280;16708;50.426;7.664;2023-03-15T13:57:51;989.54;;;15.88;35.21
29815;BME280;16708;50.426;7.664;2023-03-15T14:02:44;989.55;;;12.17;41.01
29815;BME280;16708;50.426;7.664;2023-03-15T14:07:37;989.58;;;14.66;38.88
29815;BME280;16708;50.426;7.664;2023-03-15T14:12:32;989.55;;;13.11;39.58
29815;BME280;16708;50.426;7.664;2023-03-15T14:17:24;989.65;;;14.17;39.32
29815;BME280;16708;50.426;7.664;2023-03-15T14:22:17;989.63;;;12.51;40.58
29815;BME280;16708;50.426;7.664;2023-03-15T14:27:11;989.61;;;9.93;44.83
29815;BME280;16708;50.426;7.664;2023-03-15T14:32:05;989.59;;;9.15;47.23
29815;BME280;16708;50.426;7.664;2023-03-15T14:36:58;989.75;;;8.33;51.05
29815;BME280;16708;50.426;7.664;2023-03-15T14:41:51;989.78;;;8.65;51.41
29815;BME280;16708;50.426;7.664;2023-03-15T14:46:44;989.76;;;8.47;53.20
29815;BME280;16708;50.426;7.664;2023-03-15T14:51:37;989.76;;;7.95;49.68
29815;BME280;16708;50.426;7.664;2023-03-15T14:56:30;989.87;;;8.50;52.62
29815;BME280;16708;50.426;7.664;2023-03-15T15:01:24;989.87;;;8.63;56.58
29815;BME280;16708;50.426;7.664;2023-03-15T15:06:17;989.83;;;7.85;55.85
29815;BME280;16708;50.426;7.664;2023-03-15T15:11:11;990.05;;;7.70;59.99
29815;BME280;16708;50.426;7.664;2023-03-15T15:16:05;989.99;;;8.76;52.18
29815;BME280;16708;50.426;7.664;2023-03-15T15:20:59;989.97;;;8.01;52.49
29815;BME280;16708;50.426;7.664;2023-03-15T15:25:53;990.08;;;8.33;57.86
29815;BME280;16708;50.426;7.664;2023-03-15T15:30:47;990.08;;;8.02;57.38
29815;BME280;16708;50.426;7.664;2023-03-15T15:35:41;990.21;;;8.33;57.38
29815;BME280;16708;50.426;7.664;2023-03-15T15:40:33;990.19;;;9.17;54.25
29815;BME280;16708;50.426;7.664;2023-03-15T15:45:27;990.08;;;10.04;46.79
29815;BME280;16708;50.426;7.664;2023-03-15T15:50:22;990.10;;;9.77;47.49
29815;BME280;16708;50.426;7.664;2023-03-15T15:55:17;990.07;;;9.75;48.12
29815;BME280;16708;50.426;7.664;2023-03-15T16:00:11;990.07;;;11.35;44.75
29815;BME280;16708;50.426;7.664;2023-03-15T16:05:04;989.99;;;11.02;43.06
29815;BME280;16708;50.426;7.664;2023-03-15T16:09:58;989.95;;;11.46;43.74
29815;BME280;16708;50.426;7.664;2023-03-15T16:14:53;989.97;;;12.14;40.56
29815;BME280;16708;50.426;7.664;2023-03-15T16:19:47;989.92;;;11.91;43.07
29815;BME280;16708;50.426;7.664;2023-03-15T16:24:40;990.00;;;10.88;42.71
29815;BME280;16708;50.426;7.664;2023-03-15T16:29:34;989.88;;;9.82;46.17
29815;BME280;16708;50.426;7.664;2023-03-15T16:34:27;989.96;;;8.62;49.67
29815;BME280;16708;50.426;7.664;2023-03-15T16:39:21;989.94;;;7.85;50.76
29815;BME280;16708;50.426;7.664;2023-03-15T16:44:15;990.03;;;6.98;55.14
29815;BME280;16708;50.426;7.664;2023-03-15T16:49:06;990.07;;;6.82;57.58
29815;BME280;16708;50.426;7.664;2023-03-15T16:53:58;990.03;;;6.39;59.15
29815;BME280;16708;50.426;7.664;2023-03-15T16:58:52;990.10;;;6.01;64.00
29815;BME280;16708;50.426;7.664;2023-03-15T17:03:45;990.21;;;5.69;70.20
29815;BME280;16708;50.426;7.664;2023-03-15T17:08:37;990.31;;;5.14;86.86
29815;BME280;16708;50.426;7.664;2023-03-15T17:13:31;990.35;;;4.79;83.77
29815;BME280;16708;50.426;7.664;2023-03-15T17:18:23;990.34;;;4.63;98.70
29815;BME280;16708;50.426;7.664;2023-03-15T17:23:16;990.42;;;4.77;100.00
29815;BME280;16708;50.426;7.664;2023-03-15T17:28:09;990.42;;;4.40;100.00
29815;BME280;16708;50.426;7.664;2023-03-15T17:33:03;990.38;;;4.00;100.00
29815;BME280;16708;50.426;7.664;2023-03-15T17:37:57;990.45;;;3.57;100.00
29815;BME280;16708;50.426;7.664;2023-03-15T17:47:44;990.48;;;3.00;100.00
29815;BME280;16708;50.426;7.664;2023-03-15T17:52:38;990.52;;;2.84;100.00
29815;BME280;16708;50.426;7.664;2023-03-15T17:57:31;990.57;;;2.70;100.00
29815;BME280;16708;50.426;7.664;2023-03-15T18:07:18;990.77;;;2.34;100.00
29815;BME280;16708;50.426;7.664;2023-03-15T18:12:12;990.75;;;2.30;100.00
29815;BME280;16708;50.426;7.664;2023-03-15T18:17:06;990.74;;;2.20;100.00
29815;BME280;16708;50.426;7.664;2023-03-15T18:21:59;990.72;;;2.14;100.00
29815;BME280;16708;50.426;7.664;2023-03-15T18:26:53;990.76;;;2.15;100.00
29815;BME280;16708;50.426;7.664;2023-03-15T18:31:47;990.76;;;2.11;100.00
29815;BME280;16708;50.426;7.664;2023-03-15T18:36:41;990.79;;;2.11;100.00
29815;BME280;16708;50.426;7.664;2023-03-15T18:41:35;990.78;;;1.98;100.00
29815;BME280;16708;50.426;7.664;2023-03-15T18:46:29;990.76;;;1.78;100.00
29815;BME280;16708;50.426;7.664;2023-03-15T18:51:23;990.97;;;1.64;100.00
29815;BME280;16708;50.426;7.664;2023-03-15T18:56:17;990.98;;;1.45;100.00
29815;BME280;16708;50.426;7.664;2023-03-15T19:01:10;991.04;;;1.33;100.00
29815;BME280;16708;50.426;7.664;2023-03-15T19:06:07;991.08;;;1.32;100.00
29815;BME280;16708;50.426;7.664;2023-03-15T19:10:58;991.08;;;1.20;100.00
29815;BME280;16708;50.426;7.664;2023-03-15T19:15:52;991.15;;;0.94;100.00
29815;BME280;16708;50.426;7.664;2023-03-15T19:20:45;991.12;;;0.93;100.00
29815;BME280;16708;50.426;7.664;2023-03-15T19:25:37;991.11;;;0.88;100.00
29815;BME280;16708;50.426;7.664;2023-03-15T19:30:31;991.09;;;0.85;100.00
29815;BME280;16708;50.426;7.664;2023-03-15T19:35:25;991.06;;;0.65;100.00
29815;BME280;16708;50.426;7.664;2023-03-15T19:40:19;991.07;;;0.51;100.00
29815;BME280;16708;50.426;7.664;2023-03-15T19:45:13;991.03;;;0.42;100.00
29815;BME280;16708;50.426;7.664;2023-03-15T19:50:08;991.12;;;0.40;100.00
29815;BME280;16708;50.426;7.664;2023-03-15T19:55:02;991.08;;;0.43;100.00
29815;BME280;16708;50.426;7.664;2023-03-15T19:59:56;991.09;;;0.44;100.00
29815;BME280;16708;50.426;7.664;2023-03-15T20:04:50;991.06;;;0.49;100.00
29815;BME280;16708;50.426;7.664;2023-03-15T20:09:44;991.24;;;0.28;100.00
29815;BME280;16708;50.426;7.664;2023-03-15T20:14:38;991.18;;;0.32;100.00
29815;BME280;16708;50.426;7.664;2023-03-15T20:19:32;991.21;;;0.34;100.00
29815;BME280;16708;50.426;7.664;2023-03-15T20:24:26;991.27;;;0.33;100.00
29815;BME280;16708;50.426;7.664;2023-03-15T20:29:20;991.36;;;0.33;100.00
29815;BME280;16708;50.426;7.664;2023-03-15T20:34:14;991.24;;;0.29;100.00
29815;BME280;16708;50.426;7.664;2023-03-15T20:39:08;991.30;;;0.30;100.00
29815;BME280;16708;50.426;7.664;2023-03-15T20:44:02;991.24;;;0.28;100.00
29815;BME280;16708;50.426;7.664;2023-03-15T20:48:55;991.40;;;0.24;100.00
29815;BME280;16708;50.426;7.664;2023-03-15T20:53:47;991.48;;;0.20;100.00
29815;BME280;16708;50.426;7.664;2023-03-15T20:58:41;991.37;;;-0.09;100.00
29815;BME280;16708;50.426;7.664;2023-03-15T21:03:35;991.49;;;-0.22;100.00
29815;BME280;16708;50.426;7.664;2023-03-15T21:08:29;991.47;;;-0.12;100.00
29815;BME280;16708;50.426;7.664;2023-03-15T21:13:23;991.40;;;-0.18;100.00
29815;BME280;16708;50.426;7.664;2023-03-15T21:18:17;991.38;;;-0.19;100.00
29815;BME280;16708;50.426;7.664;2023-03-15T21:23:10;991.48;;;-0.21;100.00
29815;BME280;16708;50.426;7.664;2023-03-15T21:28:03;991.40;;;-0.22;100.00
29815;BME280;16708;50.426;7.664;2023-03-15T21:32:59;991.37;;;-0.26;100.00
29815;BME280;16708;50.426;7.664;2023-03-15T21:37:49;991.38;;;-0.28;100.00
29815;BME280;16708;50.426;7.664;2023-03-15T21:42:42;991.29;;;-0.32;100.00
29815;BME280;16708;50.426;7.664;2023-03-15T21:47:33;991.38;;;-0.43;100.00
29815;BME280;16708;50.426;7.664;2023-03-15T21:52:27;991.36;;;-0.59;100.00
29815;BME280;16708;50.426;7.664;2023-03-15T21:57:21;991.33;;;-0.60;100.00
29815;BME280;16708;50.426;7.664;2023-03-15T22:02:15;991.29;;;-0.70;100.00
29815;BME280;16708;50.426;7.664;2023-03-15T22:07:08;991.24;;;-0.76;100.00
29815;BME280;16708;50.426;7.664;2023-03-15T22:12:02;991.23;;;-0.72;100.00
29815;BME280;16708;50.426;7.664;2023-03-15T22:16:55;991.24;;;-0.73;100.00
29815;BME280;16708;50.426;7.664;2023-03-15T22:21:49;991.28;;;-0.83;100.00
29815;BME280;16708;50.426;7.664;2023-03-15T22:26:43;991.17;;;-0.82;100.00
29815;BME280;16708;50.426;7.664;2023-03-15T22:31:37;991.24;;;-0.78;100.00
29815;BME280;16708;50.426;7.664;2023-03-15T22:36:31;991.24;;;-0.67;100.00
29815;BME280;16708;50.426;7.664;2023-03-15T22:41:25;991.19;;;-0.67;100.00
29815;BME280;16708;50.426;7.664;2023-03-15T22:46:19;991.15;;;-0.68;100.00
29815;BME280;16708;50.426;7.664;2023-03-15T22:51:13;991.05;;;-0.43;100.00
29815;BME280;16708;50.426;7.664;2023-03-15T22:56:07;991.13;;;-0.40;100.00
29815;BME280;16708;50.426;7.664;2023-03-15T23:01:02;991.09;;;-0.61;100.00
29815;BME280;16708;50.426;7.664;2023-03-15T23:05:56;991.13;;;-0.67;100.00
29815;BME280;16708;50.426;7.664;2023-03-15T23:10:47;991.15;;;-0.76;100.00
29815;BME280;16708;50.426;7.664;2023-03-15T23:15:41;991.08;;;-0.75;100.00
29815;BME280;16708;50.426;7.664;2023-03-15T23:20:35;991.04;;;-0.67;100.00
29815;BME280;16708;50.426;7.664;2023-03-15T23:25:29;991.13;;;-0.66;100.00
29815;BME280;16708;50.426;7.664;2023-03-15T23:30:22;991.10;;;-0.70;100.00
29815;BME280;16708;50.426;7.664;2023-03-15T23:35:17;991.07;;;-0.62;100.00
29815;BME280;16708;50.426;7.664;2023-03-15T23:40:10;991.19;;;-0.01;100.00
29815;BME280;16708;50.426;7.664;2023-03-15T23:45:04;991.09;;;0.05;100.00
29815;BME280;16708;50.426;7.664;2023-03-15T23:49:58;991.15;;;0.29;100.00
29815;BME280;16708;50.426;7.664;2023-03-15T23:54:52;991.05;;;0.35;100.00
29815;BME280;16708;50.426;7.664;2023-03-15T23:59:46;990.98;;;0.70;100.00
